地図

経路データ

SID SEASON NUMBER BASIN SUBBASIN NAME ISO_TIME NATURE LAT LON WMO_WIND WMO_PRES WMO_AGENCY TRACK_TYPE DIST2LAND LANDFALL IFLAG USA_AGENCY USA_ATCF_ID USA_LAT USA_LON USA_RECORD USA_STATUS USA_WIND USA_PRES USA_SSHS USA_R34_NE USA_R34_SE USA_R34_SW USA_R34_NW USA_R50_NE USA_R50_SE USA_R50_SW USA_R50_NW USA_R64_NE USA_R64_SE USA_R64_SW USA_R64_NW USA_POCI USA_ROCI USA_RMW USA_EYE TOKYO_LAT TOKYO_LON TOKYO_GRADE TOKYO_WIND TOKYO_PRES TOKYO_R50_DIR TOKYO_R50_LONG TOKYO_R50_SHORT TOKYO_R30_DIR TOKYO_R30_LONG TOKYO_R30_SHORT TOKYO_LAND CMA_LAT CMA_LON CMA_CAT CMA_WIND CMA_PRES HKO_LAT HKO_LON HKO_CAT HKO_WIND HKO_PRES NEWDELHI_LAT NEWDELHI_LON NEWDELHI_GRADE NEWDELHI_WIND NEWDELHI_PRES NEWDELHI_CI NEWDELHI_DP NEWDELHI_POCI REUNION_LAT REUNION_LON REUNION_TYPE REUNION_WIND REUNION_PRES REUNION_TNUM REUNION_CI REUNION_RMW REUNION_R34_NE REUNION_R34_SE REUNION_R34_SW REUNION_R34_NW REUNION_R50_NE REUNION_R50_SE REUNION_R50_SW REUNION_R50_NW REUNION_R64_NE REUNION_R64_SE REUNION_R64_SW REUNION_R64_NW BOM_LAT BOM_LON BOM_TYPE BOM_WIND BOM_PRES BOM_TNUM BOM_CI BOM_RMW BOM_R34_NE BOM_R34_SE BOM_R34_SW BOM_R34_NW BOM_R50_NE BOM_R50_SE BOM_R50_SW BOM_R50_NW BOM_R64_NE BOM_R64_SE BOM_R64_SW BOM_R64_NW BOM_ROCI BOM_POCI BOM_EYE BOM_POS_METHOD BOM_PRES_METHOD NADI_LAT NADI_LON NADI_CAT NADI_WIND NADI_PRES WELLINGTON_LAT WELLINGTON_LON WELLINGTON_WIND WELLINGTON_PRES DS824_LAT DS824_LON DS824_STAGE DS824_WIND DS824_PRES TD9636_LAT TD9636_LON TD9636_STAGE TD9636_WIND TD9636_PRES TD9635_LAT TD9635_LON TD9635_WIND TD9635_PRES TD9635_ROCI NEUMANN_LAT NEUMANN_LON NEUMANN_CLASS NEUMANN_WIND NEUMANN_PRES MLC_LAT MLC_LON MLC_CLASS MLC_WIND MLC_PRES USA_GUST BOM_GUST BOM_GUST_PER REUNION_GUST REUNION_GUST_PER USA_SEAHGT USA_SEARAD_NE USA_SEARAD_SE USA_SEARAD_SW USA_SEARAD_NW STORM_SPEED STORM_DIR
1946183N20091 1946 35 NI BB NOT_NAMED 1946-07-01 18:00:00 TS 20.0000 91.4000 main 130 130 O________O____ jtwc_io IO031946 20.0000 91.4000 -1 20.0000 91.4000 TC 3 291
1946183N20091 1946 35 NI BB NOT_NAMED 1946-07-01 21:00:00 TS 20.0500 91.2625 main 132 132 P________P____ IO031946 20.0500 91.2625 -1 20.0500 91.2625 TC 3 290
1946183N20091 1946 35 NI BB NOT_NAMED 1946-07-02 00:00:00 TS 20.1000 91.1000 main 151 151 O________O____ jtwc_io IO031946 20.1000 91.1000 -1 20.1000 91.1000 TC 25 4 285
1946183N20091 1946 35 NI BB NOT_NAMED 1946-07-02 03:00:00 TS 20.1444 90.8889 main 170 170 P________PO___ IO031946 20.1499 90.8875 -1 20.1499 90.8875 TC 25 20.1000 90.9000 1 5 282
1946183N20091 1946 35 NI BB NOT_NAMED 1946-07-02 06:00:00 TS 20.2003 90.5792 main 183 167 O________OP___ jtwc_io IO031946 20.2000 90.6000 -1 20.2000 90.6000 TC 25 20.2013 90.4962 1 7 280
1946183N20091 1946 35 NI BB NOT_NAMED 1946-07-02 09:00:00 TS 20.2615 90.1765 main 167 161 P________PP___ IO031946 20.2502 90.2000 -1 20.2502 90.2000 TC 25 20.2916 90.1137 1 7 279
1946183N20091 1946 35 NI BB NOT_NAMED 1946-07-02 12:00:00 TS 20.3204 89.7914 main 161 140 O________OP___ jtwc_io IO031946 20.3000 89.8000 -1 20.3000 89.8000 TC 25 20.3611 89.7742 1 6 280
1946183N20091 1946 35 NI BB NOT_NAMED 1946-07-02 15:00:00 TS 20.3716 89.5133 main 140 135 P________PO___ IO031946 20.3574 89.5200 -1 20.3574 89.5200 TC 25 20.4000 89.5000 1 5 280
1946183N20091 1946 35 NI BB NOT_NAMED 1946-07-02 18:00:00 TS 20.4019 89.2997 main 135 134 O________OP___ jtwc_io IO031946 20.4000 89.3000 -1 20.4000 89.3000 TC 25 20.4057 89.2990 1 4 273
1946183N20091 1946 35 NI BB NOT_NAMED 1946-07-02 21:00:00 TS 20.3909 89.1227 main 134 134 P________PP___ IO031946 20.3848 89.1223 -1 20.3848 89.1223 TC 25 20.4032 89.1234 1 4 271
1946183N20091 1946 35 NI BB NOT_NAMED 1946-07-03 00:00:00 TS 20.4081 88.9037 main 134 123 O________OP___ jtwc_io IO031946 20.4000 88.9000 -1 20.4000 88.9000 TC 25 20.4242 88.9112 1 5 283
1946183N20091 1946 35 NI BB NOT_NAMED 1946-07-03 03:00:00 TS 20.5082 88.5782 main 123 100 P________PO___ IO031946 20.5123 88.5673 -1 20.5123 88.5673 TC 25 20.5000 88.6000 1 8 290
1946183N20091 1946 35 NI BB NOT_NAMED 1946-07-03 06:00:00 TS 20.6895 88.0988 main 101 53 O________OP___ jtwc_io IO031946 20.7000 88.1000 -1 20.7000 88.1000 TC 25 20.6685 88.0965 1 11 292
1946183N20091 1946 35 NI BB NOT_NAMED 1946-07-03 09:00:00 TS 20.9257 87.4789 main 53 0 P________PP___ IO031946 20.9428 87.4728 -1 20.9428 87.4728 TC 25 20.8915 87.4911 1 13 292
1946183N20091 1946 35 NI BB NOT_NAMED 1946-07-03 12:00:00 TS 21.1812 86.8134 main 0 0 O________OP___ jtwc_io IO031946 21.2000 86.8000 -1 21.2000 86.8000 TC 25 21.1435 86.8401 1 13 292
1946183N20091 1946 35 NI BB NOT_NAMED 1946-07-03 15:00:00 TS 21.3998 86.2231 main 0 0 P________PO___ IO031946 21.3997 86.2346 -1 21.3997 86.2346 TC 25 21.4000 86.2000 1 12 292
1946183N20091 1946 35 NI BB NOT_NAMED 1946-07-03 18:00:00 TS 21.6168 85.6663 main 0 0 O________OP___ jtwc_io IO031946 21.6000 85.7000 -1 21.6000 85.7000 TC 25 21.6420 85.6158 1 11 294
1946183N20091 1946 35 NI BB NOT_NAMED 1946-07-03 21:00:00 TS 21.8516 85.1243 main 0 0 P________PP___ IO031946 21.8380 85.1555 -1 21.8380 85.1555 TC 25 21.8697 85.0827 1 11 296
1946183N20091 1946 35 NI BB NOT_NAMED 1946-07-04 00:00:00 TS 22.0938 84.5916 main 0 0 O________OP___ jtwc_io IO031946 22.1000 84.6000 -1 22.1000 84.6000 TC 25 22.0876 84.5833 1 11 295
1946183N20091 1946 35 NI BB NOT_NAMED 1946-07-04 03:00:00 NR 22.3000 84.1000 main 0 __________O___ IO031946 -1 TC 22.3000 84.1000 1 10 294

IBTrACS Databaseについて

本データベースは、米国NOAAが公開する1842年以降の世界の熱帯低気圧のベストトラックデータアーカイブInternational Best Track Archive for Climate Stewardship (IBTrACS)を、ウェブで閲覧しやすい形式に変換したものです。

最終更新日:2021-10-21